Time;durP1;ratioP1;P1;durP2;ratioP2;P2;SDS_P1;SDS_P2;PMS_P1;PMS_P2;Temp;Humidity;BMP_temperature;BMP_pressure;BME280_temperature;BME280_humidity;BME280_pressure;Samples;Min_cycle;Max_cycle;Signal;HPM_P1;HPM_P2
2023/05/25 00:01:19;;;;;;;7.03;5.00;;;;;;;;;;12666727;23;20926;-82
2023/05/25 00:06:21;;;;;;;10.25;4.93;;;;;;;;;;12668664;23;20487;-84
2023/05/25 00:11:25;;;;;;;9.45;5.18;;;;;;;;;;12672386;23;20422;-83
2023/05/25 00:16:29;;;;;;;6.33;4.83;;;;;;;;;;12671763;23;20617;-83
2023/05/25 00:21:32;;;;;;;8.30;5.30;;;;;;;;;;12672002;23;20371;-82
2023/05/25 00:26:35;;;;;;;8.20;5.63;;;;;;;;;;12672315;23;20823;-83
2023/05/25 00:31:39;;;;;;;9.15;6.15;;;;;;;;;;12671049;23;20630;-82
2023/05/25 00:36:42;;;;;;;9.20;6.13;;;;;;;;;;12670916;23;20391;-83
2023/05/25 00:41:44;;;;;;;8.48;5.80;;;;;;;;;;12670947;23;20364;-82
2023/05/25 00:46:50;;;;;;;9.02;5.53;;;;;;;;;;12671642;23;20374;-83
2023/05/25 00:51:53;;;;;;;7.43;5.93;;;;;;;;;;12670974;23;20379;-82
2023/05/25 00:57:01;;;;;;;7.65;5.90;;;;;;;;;;12670212;23;20387;-83
2023/05/25 01:02:07;;;;;;;8.47;5.70;;;;;;;;;;12670341;23;20448;-83
2023/05/25 01:07:11;;;;;;;7.88;5.47;;;;;;;;;;12670372;23;20372;-83
2023/05/25 01:12:15;;;;;;;7.50;5.60;;;;;;;;;;12670124;23;20367;-82
2023/05/25 01:17:19;;;;;;;7.80;5.30;;;;;;;;;;12670483;23;20391;-83
2023/05/25 01:22:28;;;;;;;6.25;4.78;;;;;;;;;;12671078;23;20453;-82
2023/05/25 01:27:37;;;;;;;9.07;5.00;;;;;;;;;;12670085;23;20430;-82
2023/05/25 01:32:43;;;;;;;7.22;5.68;;;;;;;;;;12665305;23;20518;-82
2023/05/25 01:37:48;;;;;;;8.40;5.77;;;;;;;;;;12665052;23;20782;-82
2023/05/25 01:42:51;;;;;;;7.40;5.78;;;;;;;;;;12666161;23;20371;-82
2023/05/25 01:48:11;;;;;;;7.90;6.10;;;;;;;;;;12667884;23;20371;-82
2023/05/25 01:53:20;;;;;;;8.25;5.45;;;;;;;;;;12665298;23;20665;-82
2023/05/25 01:58:25;;;;;;;8.00;5.50;;;;;;;;;;12665272;23;20387;-82
2023/05/25 02:03:28;;;;;;;6.90;5.65;;;;;;;;;;12665261;23;20359;-82
2023/05/25 02:08:32;;;;;;;6.90;5.55;;;;;;;;;;12669963;23;20438;-82
2023/05/25 02:13:34;;;;;;;7.60;6.20;;;;;;;;;;12670040;23;20363;-82
2023/05/25 02:18:36;;;;;;;6.47;5.38;;;;;;;;;;12663249;23;20399;-82
2023/05/25 02:23:40;;;;;;;7.00;5.30;;;;;;;;;;12662089;23;20372;-82
2023/05/25 02:28:42;;;;;;;6.72;5.80;;;;;;;;;;12664086;23;20421;-82
2023/05/25 02:33:45;;;;;;;6.90;5.70;;;;;;;;;;12665083;23;20375;-82
2023/05/25 02:38:50;;;;;;;8.15;5.70;;;;;;;;;;12668664;23;20426;-82
2023/05/25 02:43:53;;;;;;;7.10;5.80;;;;;;;;;;12669254;23;20371;-81
2023/05/25 02:48:55;;;;;;;6.87;5.80;;;;;;;;;;12668476;23;20367;-82
2023/05/25 02:54:00;;;;;;;7.65;5.88;;;;;;;;;;12668386;23;20371;-82
2023/05/25 02:59:02;;;;;;;6.67;5.63;;;;;;;;;;12668703;23;20399;-83
2023/05/25 03:04:04;;;;;;;8.73;6.07;;;;;;;;;;12669263;23;20744;-82
2023/05/25 03:09:08;;;;;;;6.53;5.68;;;;;;;;;;12668216;23;20379;-82
2023/05/25 03:14:12;;;;;;;6.90;5.70;;;;;;;;;;12668808;23;20375;-82
2023/05/25 03:19:14;;;;;;;6.70;5.67;;;;;;;;;;12667753;23;20471;-82
2023/05/25 03:24:19;;;;;;;6.75;5.93;;;;;;;;;;12667167;23;20368;-82
2023/05/25 03:29:22;;;;;;;6.95;5.28;;;;;;;;;;12668580;23;20375;-82
2023/05/25 03:34:25;;;;;;;6.20;5.60;;;;;;;;;;12667711;23;20375;-82
2023/05/25 03:39:28;;;;;;;6.57;5.17;;;;;;;;;;12667429;23;20391;-82
2023/05/25 03:44:30;;;;;;;6.60;5.00;;;;;;;;;;12667461;23;20419;-82
2023/05/25 03:49:33;;;;;;;6.40;4.57;;;;;;;;;;12667436;23;20836;-82
2023/05/25 03:54:37;;;;;;;5.25;4.55;;;;;;;;;;12667454;23;20422;-82
2023/05/25 03:59:39;;;;;;;5.95;4.40;;;;;;;;;;12666666;23;20391;-82
2023/05/25 04:04:42;;;;;;;4.25;3.83;;;;;;;;;;12667338;23;20379;-82
2023/05/25 04:09:46;;;;;;;5.28;3.80;;;;;;;;;;12667567;23;20422;-82
2023/05/25 04:14:48;;;;;;;5.53;4.00;;;;;;;;;;12666145;23;20371;-82
2023/05/25 04:19:51;;;;;;;4.13;3.72;;;;;;;;;;12668440;23;20391;-82
2023/05/25 04:24:55;;;;;;;4.50;3.20;;;;;;;;;;12666423;23;20399;-81
2023/05/25 04:29:57;;;;;;;4.95;3.45;;;;;;;;;;12667327;23;20392;-82
2023/05/25 04:34:59;;;;;;;5.18;3.60;;;;;;;;;;12667247;23;20387;-82
2023/05/25 04:40:12;;;;;;;4.38;3.95;;;;;;;;;;12663656;23;20397;-81
2023/05/25 04:45:16;;;;;;;4.63;3.50;;;;;;;;;;12666991;23;20382;-82
2023/05/25 04:50:18;;;;;;;5.68;3.60;;;;;;;;;;12665450;23;20386;-81
2023/05/25 04:55:22;;;;;;;6.40;3.60;;;;;;;;;;12666280;23;20383;-82
2023/05/25 05:00:25;;;;;;;4.40;3.77;;;;;;;;;;12668405;23;20390;-81
2023/05/25 05:05:27;;;;;;;5.75;3.60;;;;;;;;;;12671163;23;20398;-82
2023/05/25 05:10:31;;;;;;;3.70;3.40;;;;;;;;;;12669803;23;20372;-81
2023/05/25 05:15:34;;;;;;;5.50;3.70;;;;;;;;;;12670121;23;20383;-81
2023/05/25 05:20:37;;;;;;;3.80;3.40;;;;;;;;;;12669890;23;20375;-81
2023/05/25 05:25:41;;;;;;;5.30;3.35;;;;;;;;;;12669318;23;20371;-81
2023/05/25 05:30:45;;;;;;;6.03;3.30;;;;;;;;;;12669402;23;20461;-82
2023/05/25 05:35:48;;;;;;;4.43;3.50;;;;;;;;;;12666864;23;20422;-82
2023/05/25 05:40:51;;;;;;;4.77;3.60;;;;;;;;;;12669745;23;20399;-82
2023/05/25 05:45:54;;;;;;;5.28;3.53;;;;;;;;;;12667499;23;20716;-83
2023/05/25 05:50:56;;;;;;;5.70;3.60;;;;;;;;;;12667844;23;20367;-83
2023/05/25 05:56:00;;;;;;;4.32;3.42;;;;;;;;;;12669240;23;20450;-83
2023/05/25 06:01:03;;;;;;;4.57;3.22;;;;;;;;;;12668956;23;20379;-83
2023/05/25 06:06:06;;;;;;;5.35;3.70;;;;;;;;;;12666262;23;20371;-84
2023/05/25 06:11:09;;;;;;;4.37;3.60;;;;;;;;;;12667574;23;20375;-83
2023/05/25 06:16:12;;;;;;;4.63;3.67;;;;;;;;;;12658719;23;20383;-84
2023/05/25 06:21:14;;;;;;;4.53;3.40;;;;;;;;;;12669886;23;20832;-90
2023/05/25 06:26:18;;;;;;;4.20;3.23;;;;;;;;;;12667380;23;20844;-86
2023/05/25 06:31:21;;;;;;;3.60;3.20;;;;;;;;;;12668785;23;20446;-86
2023/05/25 06:36:23;;;;;;;5.70;3.80;;;;;;;;;;12668130;23;20454;-88
2023/05/25 06:41:27;;;;;;;4.15;3.42;;;;;;;;;;12668026;23;20371;-88
2023/05/25 06:46:29;;;;;;;5.32;3.55;;;;;;;;;;12668217;23;20907;-87
2023/05/25 06:51:31;;;;;;;4.68;4.03;;;;;;;;;;12668456;23;20927;-87
2023/05/25 06:56:35;;;;;;;5.57;3.30;;;;;;;;;;12667395;23;20418;-82
2023/05/25 07:01:38;;;;;;;4.15;3.75;;;;;;;;;;12667742;23;20438;-82
2023/05/25 07:06:40;;;;;;;6.68;3.70;;;;;;;;;;12667233;23;20375;-82
2023/05/25 07:11:44;;;;;;;4.82;4.22;;;;;;;;;;12667666;23;20830;-80
2023/05/25 07:16:46;;;;;;;7.35;5.10;;;;;;;;;;12666423;23;20519;-81
2023/05/25 07:21:49;;;;;;;6.22;5.03;;;;;;;;;;12666579;23;20846;-80
2023/05/25 07:26:52;;;;;;;18.60;7.20;;;;;;;;;;12666797;23;20422;-81
2023/05/25 07:31:55;;;;;;;9.07;5.53;;;;;;;;;;12666709;23;20445;-82
2023/05/25 07:36:57;;;;;;;11.87;6.20;;;;;;;;;;12667529;23;20542;-81
2023/05/25 07:42:01;;;;;;;10.02;6.20;;;;;;;;;;12667462;23;20375;-80
2023/05/25 07:47:05;;;;;;;9.82;6.15;;;;;;;;;;12667649;23;20370;-79
2023/05/25 07:52:07;;;;;;;10.47;6.57;;;;;;;;;;12666358;23;20375;-79
2023/05/25 07:57:11;;;;;;;8.40;5.70;;;;;;;;;;12668263;23;20426;-78
2023/05/25 08:02:13;;;;;;;7.35;5.63;;;;;;;;;;12667519;23;20375;-79
2023/05/25 08:07:16;;;;;;;6.60;5.13;;;;;;;;;;12667693;23;20375;-79
2023/05/25 08:12:19;;;;;;;6.55;5.22;;;;;;;;;;12665327;23;20371;-80
2023/05/25 08:17:22;;;;;;;6.25;5.10;;;;;;;;;;12667120;23;20453;-79
2023/05/25 08:22:24;;;;;;;8.43;5.67;;;;;;;;;;12665560;23;20370;-79
2023/05/25 08:27:28;;;;;;;8.27;5.97;;;;;;;;;;12668399;23;20367;-80
2023/05/25 08:32:30;;;;;;;9.23;6.22;;;;;;;;;;12670876;23;20376;-79
2023/05/25 08:37:33;;;;;;;8.43;5.70;;;;;;;;;;12670122;23;20441;-80
2023/05/25 08:42:36;;;;;;;7.03;5.43;;;;;;;;;;12670398;23;20363;-79
2023/05/25 08:47:41;;;;;;;8.05;5.55;;;;;;;;;;12670137;23;20415;-79
2023/05/25 08:52:45;;;;;;;7.90;5.18;;;;;;;;;;12671175;23;20457;-79
2023/05/25 08:57:59;;;;;;;6.13;4.32;;;;;;;;;;12669580;23;20391;-80
2023/05/25 09:03:07;;;;;;;4.85;4.03;;;;;;;;;;12671441;23;20394;-80
2023/05/25 09:08:09;;;;;;;7.07;4.17;;;;;;;;;;12669733;23;20371;-80
2023/05/25 09:13:14;;;;;;;7.30;4.18;;;;;;;;;;12671291;23;20751;-80
2023/05/25 09:18:18;;;;;;;4.83;3.73;;;;;;;;;;12668804;23;20387;-79
2023/05/25 09:23:22;;;;;;;7.57;4.10;;;;;;;;;;12669790;23;20978;-80
2023/05/25 09:28:26;;;;;;;4.82;4.32;;;;;;;;;;12670596;23;20751;-80
2023/05/25 09:33:28;;;;;;;6.97;4.88;;;;;;;;;;12669781;23;20371;-80
2023/05/25 09:38:30;;;;;;;5.65;4.55;;;;;;;;;;12669556;23;20442;-80
2023/05/25 09:43:34;;;;;;;4.90;4.10;;;;;;;;;;12670317;23;20736;-81
2023/05/25 09:48:36;;;;;;;4.50;3.83;;;;;;;;;;12668998;23;20450;-81
2023/05/25 09:53:39;;;;;;;4.60;3.60;;;;;;;;;;12670897;23;20415;-80
2023/05/25 09:58:42;;;;;;;5.43;3.90;;;;;;;;;;12668590;23;20947;-81
2023/05/25 10:03:46;;;;;;;7.75;4.20;;;;;;;;;;12668853;23;20441;-82
2023/05/25 10:08:49;;;;;;;5.85;3.92;;;;;;;;;;12670293;23;20379;-82
2023/05/25 10:13:54;;;;;;;3.70;3.20;;;;;;;;;;12668440;23;20410;-82
2023/05/25 10:19:06;;;;;;;4.60;3.28;;;;;;;;;;12669411;23;20391;-82
2023/05/25 10:24:17;;;;;;;4.32;3.30;;;;;;;;;;12668240;23;20919;-83
2023/05/25 10:29:23;;;;;;;3.70;3.22;;;;;;;;;;12662318;23;20435;-82
2023/05/25 10:34:27;;;;;;;3.90;3.50;;;;;;;;;;12659464;23;20434;-82
2023/05/25 10:39:30;;;;;;;3.35;2.92;;;;;;;;;;12656584;23;20732;-82
2023/05/25 10:44:34;;;;;;;4.00;3.60;;;;;;;;;;12659868;23;20403;-83
2023/05/25 10:49:53;;;;;;;3.97;3.58;;;;;;;;;;12659159;23;20371;-83
2023/05/25 10:54:56;;;;;;;4.90;3.88;;;;;;;;;;12666776;23;20452;-82
2023/05/25 11:00:05;;;;;;;3.90;3.50;;;;;;;;;;12666695;23;20391;-83
2023/05/25 11:05:32;;;;;;;3.78;3.33;;;;;;;;;;12666866;23;20414;-83
2023/05/25 11:10:53;;;;;;;4.55;3.35;;;;;;;;;;12638644;23;20434;-83
2023/05/25 11:16:19;;;;;;;4.20;3.17;;;;;;;;;;12666464;23;20426;-83
2023/05/25 11:21:41;;;;;;;3.63;3.33;;;;;;;;;;12666159;23;20391;-83
2023/05/25 11:26:56;;;;;;;3.75;3.45;;;;;;;;;;12667089;23;20370;-83
2023/05/25 11:32:01;;;;;;;3.40;3.10;;;;;;;;;;12658476;23;20375;-83
2023/05/25 11:37:04;;;;;;;3.40;3.10;;;;;;;;;;12654833;23;21064;-83
2023/05/25 11:42:10;;;;;;;4.18;2.95;;;;;;;;;;12655733;23;20391;-83
2023/05/25 11:47:17;;;;;;;3.20;2.90;;;;;;;;;;12657382;23;20450;-83
2023/05/25 11:52:20;;;;;;;4.07;3.30;;;;;;;;;;12655595;23;20383;-84
2023/05/25 11:57:24;;;;;;;3.20;3.00;;;;;;;;;;12654947;23;20382;-85
2023/05/25 12:02:37;;;;;;;4.63;3.03;;;;;;;;;;12652880;23;20450;-85
2023/05/25 12:07:43;;;;;;;4.55;3.10;;;;;;;;;;12662397;23;20438;-85
2023/05/25 12:12:47;;;;;;;4.20;3.43;;;;;;;;;;12664943;23;20391;-85
2023/05/25 12:17:52;;;;;;;3.20;2.90;;;;;;;;;;12666212;23;20803;-85
2023/05/25 12:22:54;;;;;;;4.03;3.30;;;;;;;;;;12663729;23;20371;-85
2023/05/25 12:28:20;;;;;;;3.40;3.10;;;;;;;;;;12666946;23;20378;-85
2023/05/25 12:33:24;;;;;;;4.70;3.40;;;;;;;;;;12632467;23;20437;-84
2023/05/25 12:38:26;;;;;;;4.05;3.10;;;;;;;;;;12662584;23;20966;-79
2023/05/25 12:43:37;;;;;;;5.28;3.28;;;;;;;;;;12661825;23;20375;-85
2023/05/25 12:48:41;;;;;;;6.68;3.50;;;;;;;;;;12663266;23;20371;-85
2023/05/25 12:53:50;;;;;;;4.83;3.57;;;;;;;;;;12664393;23;20367;-85
2023/05/25 12:58:52;;;;;;;6.13;5.57;;;;;;;;;;12663079;23;20557;-85
2023/05/25 13:03:56;;;;;;;3.67;3.20;;;;;;;;;;12664490;23;20367;-85
2023/05/25 13:08:58;;;;;;;4.05;3.45;;;;;;;;;;12661657;23;20836;-85
2023/05/25 13:14:01;;;;;;;5.05;3.17;;;;;;;;;;12662204;23;20462;-85
2023/05/25 13:19:05;;;;;;;4.13;3.53;;;;;;;;;;12665470;23;20387;-86
2023/05/25 13:24:07;;;;;;;3.85;3.00;;;;;;;;;;12664656;23;20371;-85
2023/05/25 13:29:09;;;;;;;3.63;3.07;;;;;;;;;;12666359;23;20441;-86
2023/05/25 13:34:13;;;;;;;4.90;3.43;;;;;;;;;;12667018;23;20375;-85
2023/05/25 13:39:15;;;;;;;4.82;3.15;;;;;;;;;;12662205;23;20708;-84
2023/05/25 13:44:18;;;;;;;4.63;3.20;;;;;;;;;;12662370;23;20815;-84
2023/05/25 13:49:21;;;;;;;5.23;3.10;;;;;;;;;;12662674;23;20688;-83
2023/05/25 13:54:24;;;;;;;3.67;3.25;;;;;;;;;;12667580;23;20429;-84
2023/05/25 13:59:26;;;;;;;3.70;2.90;;;;;;;;;;12666054;23;20450;-83
2023/05/25 14:04:30;;;;;;;3.60;3.30;;;;;;;;;;12667000;23;20379;-83
2023/05/25 14:09:32;;;;;;;3.55;3.10;;;;;;;;;;12667959;23;20394;-83
2023/05/25 14:14:35;;;;;;;4.35;3.40;;;;;;;;;;12666669;23;20371;-83
2023/05/25 14:19:38;;;;;;;3.78;3.13;;;;;;;;;;12665573;23;20395;-83
2023/05/25 14:24:41;;;;;;;4.88;3.20;;;;;;;;;;12665465;23;20375;-84
2023/05/25 14:29:43;;;;;;;4.43;3.40;;;;;;;;;;12666273;23;20371;-84
2023/05/25 14:34:47;;;;;;;3.80;3.30;;;;;;;;;;12667366;23;20387;-84
2023/05/25 14:39:49;;;;;;;3.92;3.50;;;;;;;;;;12667136;23;20431;-84
2023/05/25 14:44:52;;;;;;;4.38;3.20;;;;;;;;;;12664885;23;20367;-84
2023/05/25 14:49:55;;;;;;;4.40;3.30;;;;;;;;;;12666995;23;20666;-83
2023/05/25 14:54:57;;;;;;;4.47;3.70;;;;;;;;;;12666109;23;20375;-84
2023/05/25 15:00:00;;;;;;;4.97;4.38;;;;;;;;;;12665309;23;20461;-84
2023/05/25 15:05:04;;;;;;;5.50;3.17;;;;;;;;;;12661193;23;20433;-84
2023/05/25 15:10:07;;;;;;;3.63;3.30;;;;;;;;;;12662636;23;20387;-85
2023/05/25 15:15:11;;;;;;;4.10;3.30;;;;;;;;;;12662376;23;20375;-84
2023/05/25 15:20:14;;;;;;;3.47;3.17;;;;;;;;;;12663060;23;20768;-83
2023/05/25 15:25:17;;;;;;;3.60;3.30;;;;;;;;;;12663368;23;20371;-84
2023/05/25 15:30:19;;;;;;;3.63;3.28;;;;;;;;;;12662889;23;20414;-84
2023/05/25 15:35:29;;;;;;;3.97;3.10;;;;;;;;;;12662369;23;20379;-85
2023/05/25 15:40:31;;;;;;;3.93;3.53;;;;;;;;;;12662437;23;20446;-84
2023/05/25 15:45:34;;;;;;;6.13;3.20;;;;;;;;;;12661473;23;20386;-84
2023/05/25 15:50:38;;;;;;;4.20;3.50;;;;;;;;;;12663990;23;20375;-85
2023/05/25 15:55:40;;;;;;;3.95;3.33;;;;;;;;;;12663031;23;20367;-84
2023/05/25 16:00:42;;;;;;;3.55;3.25;;;;;;;;;;12662752;23;20419;-85
2023/05/25 16:05:46;;;;;;;5.45;3.65;;;;;;;;;;12658559;23;20371;-84
2023/05/25 16:10:51;;;;;;;4.03;3.50;;;;;;;;;;12658891;23;20398;-84
2023/05/25 16:15:53;;;;;;;4.03;3.22;;;;;;;;;;12656220;23;20387;-84
2023/05/25 16:20:57;;;;;;;4.55;3.60;;;;;;;;;;12655552;23;20996;-85
2023/05/25 16:25:59;;;;;;;5.27;3.80;;;;;;;;;;12656669;23;20427;-84
2023/05/25 16:31:02;;;;;;;7.00;3.77;;;;;;;;;;12657187;23;20433;-84
2023/05/25 16:36:06;;;;;;;4.20;3.47;;;;;;;;;;12655652;23;20407;-85
2023/05/25 16:41:08;;;;;;;7.50;3.80;;;;;;;;;;12658692;23;20386;-83
2023/05/25 16:46:11;;;;;;;5.10;3.60;;;;;;;;;;12653980;23;20437;-85
2023/05/25 16:51:15;;;;;;;4.05;3.65;;;;;;;;;;12653432;23;20922;-85
2023/05/25 16:56:20;;;;;;;4.50;3.60;;;;;;;;;;12653576;23;20446;-85
2023/05/25 17:01:22;;;;;;;5.70;3.43;;;;;;;;;;12653870;23;20426;-85
2023/05/25 17:06:26;;;;;;;5.10;4.30;;;;;;;;;;12654524;23;20379;-84
2023/05/25 17:11:28;;;;;;;4.93;4.20;;;;;;;;;;12656260;23;20383;-86
2023/05/25 17:16:30;;;;;;;5.28;4.47;;;;;;;;;;12655626;23;20387;-86
2023/05/25 17:21:34;;;;;;;8.52;4.50;;;;;;;;;;12656666;23;20387;-86
2023/05/25 17:26:36;;;;;;;5.68;4.68;;;;;;;;;;12656048;23;20454;-83
2023/05/25 17:31:39;;;;;;;5.40;4.90;;;;;;;;;;12658230;23;20390;-84
2023/05/25 17:36:42;;;;;;;5.93;4.55;;;;;;;;;;12658895;23;20387;-84
2023/05/25 17:41:45;;;;;;;5.87;4.80;;;;;;;;;;12660696;23;20391;-84
2023/05/25 17:46:47;;;;;;;6.05;5.45;;;;;;;;;;12662486;23;20451;-84
2023/05/25 17:51:51;;;;;;;8.35;5.82;;;;;;;;;;12660225;23;20446;-83
2023/05/25 17:56:54;;;;;;;5.72;5.13;;;;;;;;;;12658857;23;20379;-83
2023/05/25 18:01:56;;;;;;;7.88;5.32;;;;;;;;;;12659191;23;20503;-86
2023/05/25 18:07:00;;;;;;;5.70;5.10;;;;;;;;;;12660563;23;20383;-86
2023/05/25 18:12:02;;;;;;;7.05;5.57;;;;;;;;;;12658661;23;20379;-86
2023/05/25 18:17:05;;;;;;;7.88;5.38;;;;;;;;;;12658551;23;20382;-86
2023/05/25 18:22:09;;;;;;;7.15;5.38;;;;;;;;;;12659621;23;20391;-86
2023/05/25 18:27:11;;;;;;;7.18;5.05;;;;;;;;;;12658609;23;20391;-86
2023/05/25 18:32:13;;;;;;;6.97;4.93;;;;;;;;;;12660146;23;20446;-86
2023/05/25 18:37:17;;;;;;;5.57;4.70;;;;;;;;;;12658506;23;20387;-85
2023/05/25 18:42:20;;;;;;;7.85;5.07;;;;;;;;;;12658250;23;20394;-85
2023/05/25 18:47:22;;;;;;;11.20;5.47;;;;;;;;;;12658218;23;20380;-85
2023/05/25 18:52:25;;;;;;;7.70;5.00;;;;;;;;;;12658575;23;20450;-85
2023/05/25 18:57:28;;;;;;;5.50;5.00;;;;;;;;;;12658355;23;20391;-85
2023/05/25 19:02:30;;;;;;;6.90;5.03;;;;;;;;;;12657073;23;20457;-85
2023/05/25 19:07:37;;;;;;;7.57;4.27;;;;;;;;;;12658461;23;20382;-85
2023/05/25 19:12:40;;;;;;;6.18;4.40;;;;;;;;;;12658454;23;20453;-85
2023/05/25 19:17:42;;;;;;;5.25;4.53;;;;;;;;;;12658360;23;20441;-85
2023/05/25 19:22:46;;;;;;;5.30;4.80;;;;;;;;;;12656588;23;20391;-83
2023/05/25 19:27:48;;;;;;;4.85;4.35;;;;;;;;;;12655809;23;20848;-84
2023/05/25 19:32:51;;;;;;;5.60;4.68;;;;;;;;;;12655309;23;20386;-84
2023/05/25 19:37:55;;;;;;;5.17;4.67;;;;;;;;;;12655064;23;20430;-84
2023/05/25 19:42:57;;;;;;;5.73;4.70;;;;;;;;;;12655346;23;20387;-84
2023/05/25 19:48:00;;;;;;;6.28;4.85;;;;;;;;;;12655557;23;20418;-84
2023/05/25 19:53:04;;;;;;;6.53;4.90;;;;;;;;;;12654486;23;20476;-84
2023/05/25 19:58:07;;;;;;;6.90;5.20;;;;;;;;;;12653898;23;20449;-84
2023/05/25 20:03:09;;;;;;;5.80;5.20;;;;;;;;;;12654912;23;20394;-82
2023/05/25 20:08:12;;;;;;;6.07;5.30;;;;;;;;;;12654263;23;20383;-84
2023/05/25 20:13:15;;;;;;;7.93;5.70;;;;;;;;;;12654865;23;20391;-84
2023/05/25 20:18:17;;;;;;;10.27;6.30;;;;;;;;;;12652174;23;20458;-84
2023/05/25 20:23:21;;;;;;;7.50;6.70;;;;;;;;;;12655850;23;20391;-84
2023/05/25 20:28:23;;;;;;;7.82;5.90;;;;;;;;;;12661457;23;20379;-84
2023/05/25 20:33:26;;;;;;;7.45;5.82;;;;;;;;;;12660389;23;20449;-85
2023/05/25 20:38:29;;;;;;;9.23;6.63;;;;;;;;;;12659150;23;20382;-84
2023/05/25 20:43:32;;;;;;;7.22;6.50;;;;;;;;;;12660002;23;20387;-84
2023/05/25 20:48:34;;;;;;;11.10;6.90;;;;;;;;;;12659775;23;20919;-84
2023/05/25 20:53:37;;;;;;;8.30;7.13;;;;;;;;;;12659229;23;20479;-83
2023/05/25 20:58:40;;;;;;;9.00;7.43;;;;;;;;;;12660260;23;20856;-84
2023/05/25 21:03:43;;;;;;;9.63;7.25;;;;;;;;;;12658551;23;20387;-84
2023/05/25 21:08:46;;;;;;;9.27;7.10;;;;;;;;;;12658342;23;20391;-84
2023/05/25 21:13:49;;;;;;;9.65;7.68;;;;;;;;;;12658606;23;20847;-84
2023/05/25 21:18:51;;;;;;;9.90;7.30;;;;;;;;;;12658516;23;20447;-84
2023/05/25 21:23:55;;;;;;;8.70;7.55;;;;;;;;;;12657516;23;20493;-84
2023/05/25 21:28:57;;;;;;;9.60;7.83;;;;;;;;;;12662523;23;20394;-84
2023/05/25 21:34:00;;;;;;;12.03;10.10;;;;;;;;;;12653109;23;20379;-84
2023/05/25 21:39:04;;;;;;;12.50;10.18;;;;;;;;;;12656831;23;20375;-83
2023/05/25 21:44:06;;;;;;;13.07;9.68;;;;;;;;;;12659328;23;20395;-83
2023/05/25 21:49:09;;;;;;;12.27;9.23;;;;;;;;;;12661703;23;20375;-84
2023/05/25 21:54:13;;;;;;;11.52;10.32;;;;;;;;;;12660176;23;20375;-83
2023/05/25 21:59:15;;;;;;;12.52;9.90;;;;;;;;;;12665270;23;20383;-84
2023/05/25 22:04:17;;;;;;;11.75;9.93;;;;;;;;;;12665524;23;20391;-86
2023/05/25 22:09:21;;;;;;;12.02;10.38;;;;;;;;;;12666312;23;20376;-83
2023/05/25 22:14:23;;;;;;;12.87;9.80;;;;;;;;;;12667937;23;20435;-84
2023/05/25 22:19:25;;;;;;;12.63;10.60;;;;;;;;;;12667268;23;20387;-86
2023/05/25 22:24:29;;;;;;;12.63;10.10;;;;;;;;;;12667309;23;20461;-86
2023/05/25 22:29:31;;;;;;;13.77;9.95;;;;;;;;;;12668387;23;20458;-86
2023/05/25 22:34:34;;;;;;;14.80;10.60;;;;;;;;;;12669375;23;20376;-85
2023/05/25 22:39:37;;;;;;;15.60;11.10;;;;;;;;;;12668477;23;20379;-85
2023/05/25 22:44:40;;;;;;;12.57;11.20;;;;;;;;;;12668715;23;20391;-86
2023/05/25 22:49:42;;;;;;;16.30;11.35;;;;;;;;;;12669260;23;20692;-86
2023/05/25 22:54:45;;;;;;;13.40;10.52;;;;;;;;;;12669378;23;20740;-85
2023/05/25 22:59:49;;;;;;;14.02;11.40;;;;;;;;;;12668806;23;20426;-85
2023/05/25 23:04:51;;;;;;;12.20;10.37;;;;;;;;;;12665134;23;20387;-86
2023/05/25 23:09:55;;;;;;;14.10;11.13;;;;;;;;;;12667449;23;20371;-86
2023/05/25 23:14:58;;;;;;;11.57;9.55;;;;;;;;;;12667984;23;20367;-85
2023/05/25 23:20:01;;;;;;;11.55;9.60;;;;;;;;;;12668046;23;20410;-86
2023/05/25 23:25:05;;;;;;;10.90;9.15;;;;;;;;;;12669094;23;20863;-84
2023/05/25 23:30:08;;;;;;;11.60;9.10;;;;;;;;;;12668257;23;20375;-85
2023/05/25 23:35:10;;;;;;;10.05;8.93;;;;;;;;;;12668866;23;20836;-85
2023/05/25 23:40:15;;;;;;;9.27;8.18;;;;;;;;;;12671730;23;20879;-92
2023/05/25 23:45:17;;;;;;;10.70;7.77;;;;;;;;;;12671892;23;20391;-91
2023/05/25 23:50:19;;;;;;;13.85;7.68;;;;;;;;;;12692806;23;20434;-91
2023/05/25 23:55:23;;;;;;;10.80;8.20;;;;;;;;;;12672230;23;20673;-91
